Time;durP1;ratioP1;P1;durP2;ratioP2;P2;SDS_P1;SDS_P2;PMS_P1;PMS_P2;Temp;Humidity;BMP_temperature;BMP_pressure;BME280_temperature;BME280_humidity;BME280_pressure;Samples;Min_cycle;Max_cycle;Signal;HPM_P1;HPM_P2
2022/03/15 00:01:19;;;;;;;8.15;5.07;;;8.50;56.10;;;6.98;56.18;97055.63;4971969;28;20090;-65
2022/03/15 00:03:45;;;;;;;9.73;5.00;;;8.50;56.10;;;6.98;56.20;97060.88;4962989;28;20070;-64
2022/03/15 00:06:11;;;;;;;6.15;4.80;;;8.50;56.20;;;6.98;55.65;97059.06;4949966;28;20459;-64
2022/03/15 00:08:37;;;;;;;15.75;5.15;;;8.50;56.40;;;6.96;55.85;97053.16;4970877;28;20581;-65
2022/03/15 00:11:05;;;;;;;9.02;5.57;;;8.50;56.30;;;6.99;56.19;97049.44;4955704;28;20051;-64
2022/03/15 00:13:37;;;;;;;8.55;5.53;;;8.50;56.40;;;7.00;56.56;97041.44;4958899;28;20035;-65
2022/03/15 00:16:04;;;;;;;10.35;5.20;;;8.50;56.30;;;6.99;56.29;97044.19;4925428;28;20046;-65
2022/03/15 00:18:30;;;;;;;10.38;5.55;;;8.50;56.30;;;6.95;56.12;97035.00;4952767;28;20043;-65
2022/03/15 00:21:01;;;;;;;9.20;5.72;;;8.50;56.60;;;6.95;57.32;97037.63;4944060;28;20039;-65
2022/03/15 00:23:26;;;;;;;7.75;5.25;;;8.50;56.60;;;6.95;55.99;97035.00;4953980;28;20031;-64
2022/03/15 00:25:53;;;;;;;9.32;5.72;;;8.50;56.60;;;6.93;56.47;97036.94;4954716;28;20066;-65
2022/03/15 00:28:19;;;;;;;9.15;5.60;;;8.40;56.60;;;6.91;57.16;97029.22;4972374;28;20122;-64
2022/03/15 00:30:45;;;;;;;10.68;6.30;;;8.40;56.80;;;6.87;56.52;97032.28;4966078;28;20129;-64
2022/03/15 00:33:12;;;;;;;12.70;6.22;;;8.40;56.90;;;6.87;57.12;97027.06;4952560;28;20043;-64
2022/03/15 00:35:38;;;;;;;8.25;5.60;;;8.40;56.80;;;6.86;56.28;97028.03;4948410;28;20061;-65
2022/03/15 00:38:03;;;;;;;8.70;6.15;;;8.40;56.80;;;6.84;56.66;97025.56;4959075;28;20547;-65
2022/03/15 00:40:29;;;;;;;8.27;5.80;;;8.40;56.80;;;6.84;56.56;97027.34;4963349;28;20143;-65
2022/03/15 00:42:55;;;;;;;8.27;5.75;;;8.30;56.90;;;6.86;56.93;97031.47;4972308;28;20407;-65
2022/03/15 00:45:25;;;;;;;6.97;5.90;;;8.40;56.90;;;6.86;57.47;97030.63;4956275;28;20531;-65
2022/03/15 00:47:52;;;;;;;8.20;5.40;;;8.40;56.80;;;6.84;57.01;97032.56;4967571;28;20035;-65
2022/03/15 00:50:18;;;;;;;9.18;5.53;;;8.30;56.90;;;6.83;57.17;97031.75;4955416;28;20144;-65
2022/03/15 00:52:44;;;;;;;10.68;6.03;;;8.40;56.80;;;6.84;57.23;97030.78;4955592;28;20035;-64
2022/03/15 00:55:10;;;;;;;8.65;6.10;;;8.40;56.80;;;6.83;56.93;97026.53;4968800;28;20575;-64
2022/03/15 00:57:36;;;;;;;7.75;5.78;;;8.40;56.90;;;6.83;57.51;97026.53;4978206;28;20110;-64
2022/03/15 01:00:04;;;;;;;12.02;6.50;;;8.40;56.90;;;6.85;57.71;97034.22;4969549;28;20042;-64
2022/03/15 01:02:30;;;;;;;12.88;6.95;;;8.40;57.00;;;6.86;56.99;97035.88;4987188;28;20035;-64
2022/03/15 01:04:56;;;;;;;11.50;7.25;;;8.40;57.10;;;6.88;57.88;97039.16;4981431;28;20388;-64
2022/03/15 01:07:21;;;;;;;10.20;7.00;;;8.40;57.40;;;6.88;57.61;97039.16;4970637;28;20525;-64
2022/03/15 01:09:47;;;;;;;10.23;7.30;;;8.50;57.40;;;6.90;58.34;97039.84;4953271;28;20055;-64
2022/03/15 01:12:13;;;;;;;9.88;7.32;;;8.50;57.80;;;6.92;58.29;97035.28;4968242;28;20503;-66
2022/03/15 01:14:38;;;;;;;10.90;8.05;;;8.50;57.80;;;6.87;58.47;97016.59;4950642;28;20035;-66
2022/03/15 01:17:04;;;;;;;10.45;7.32;;;8.40;57.80;;;6.83;57.86;97016.06;4959979;28;20035;-66
2022/03/15 01:19:30;;;;;;;13.02;7.88;;;8.30;58.00;;;6.80;58.01;97011.13;4985304;28;20394;-67
2022/03/15 01:21:56;;;;;;;10.45;7.13;;;8.30;58.10;;;6.74;58.56;97012.50;4970442;28;20035;-66
2022/03/15 01:24:22;;;;;;;10.60;7.20;;;8.20;58.30;;;6.73;58.66;97010.84;4952692;28;20051;-66
2022/03/15 01:26:47;;;;;;;9.90;7.78;;;8.20;58.40;;;6.72;58.33;97008.38;4984496;28;20034;-66
2022/03/15 01:29:13;;;;;;;11.32;7.30;;;8.20;58.40;;;6.70;58.16;97005.91;4967300;28;20455;-66
2022/03/15 01:31:39;;;;;;;10.30;7.72;;;8.30;58.30;;;6.72;58.32;97009.19;4953131;28;20263;-66
2022/03/15 01:34:05;;;;;;;12.73;8.48;;;8.30;58.40;;;6.71;58.79;97007.56;4959080;28;20130;-66
2022/03/15 01:36:31;;;;;;;12.50;8.27;;;8.30;58.50;;;6.71;58.86;97014.56;4956362;28;20089;-66
2022/03/15 01:38:57;;;;;;;10.52;8.65;;;8.30;58.50;;;6.68;59.52;97007.84;4961903;28;20039;-66
2022/03/15 01:41:23;;;;;;;12.15;8.00;;;8.20;58.70;;;6.69;59.38;97000.81;4950565;28;20050;-66
2022/03/15 01:43:49;;;;;;;11.32;7.88;;;8.20;58.70;;;6.66;58.64;96996.69;4942273;28;20061;-66
2022/03/15 01:46:15;;;;;;;9.88;8.30;;;8.20;58.70;;;6.62;59.39;96992.72;4969448;28;20443;-65
2022/03/15 01:48:41;;;;;;;11.82;8.65;;;8.10;58.90;;;6.56;59.03;96988.03;4986647;28;20039;-65
2022/03/15 01:51:07;;;;;;;11.27;8.00;;;8.10;59.20;;;6.52;59.05;96986.69;4920262;29;20074;-66
2022/03/15 01:53:32;;;;;;;10.93;8.07;;;8.10;59.20;;;6.52;59.29;96984.06;4951085;28;20027;-66
2022/03/15 01:56:01;;;;;;;11.43;8.90;;;8.10;59.20;;;6.52;59.52;96991.09;4982969;28;20046;-66
2022/03/15 01:58:28;;;;;;;12.95;7.95;;;8.10;59.30;;;6.49;59.19;96986.97;4965225;28;20038;-65
2022/03/15 02:00:53;;;;;;;16.33;8.55;;;8.10;59.50;;;6.50;59.32;96983.41;4964678;28;20045;-66
2022/03/15 02:03:19;;;;;;;10.88;8.52;;;8.10;59.50;;;6.48;59.51;96990.56;4960092;28;20391;-66
2022/03/15 02:05:45;;;;;;;13.20;9.23;;;8.10;59.70;;;6.48;59.65;96989.72;4961787;28;20028;-65
2022/03/15 02:08:13;;;;;;;12.15;8.93;;;8.10;59.60;;;6.48;60.00;96982.72;4967227;28;20035;-65
2022/03/15 02:10:39;;;;;;;10.93;8.70;;;8.10;59.60;;;6.46;59.61;96987.25;4967468;28;20027;-66
2022/03/15 02:13:05;;;;;;;16.02;8.50;;;8.10;59.50;;;6.48;59.36;96979.28;4957312;28;20031;-66
2022/03/15 02:15:31;;;;;;;11.20;8.85;;;8.10;59.30;;;6.46;60.14;96976.81;4961854;28;20553;-66
2022/03/15 02:17:57;;;;;;;13.25;8.75;;;8.10;59.50;;;6.46;59.92;96976.81;4984338;28;20114;-66
2022/03/15 02:20:23;;;;;;;14.30;9.38;;;8.10;59.50;;;6.45;59.78;96976.00;4940428;28;20038;-66
2022/03/15 02:22:49;;;;;;;13.23;8.43;;;8.10;59.40;;;6.41;60.64;96963.34;4958420;28;20082;-66
2022/03/15 02:25:15;;;;;;;12.70;8.55;;;8.00;59.60;;;6.34;59.82;96960.50;4982073;28;20577;-66
2022/03/15 02:27:40;;;;;;;12.45;8.88;;;7.90;59.80;;;6.31;60.38;96959.91;4951175;28;20123;-66
2022/03/15 02:30:07;;;;;;;14.27;9.70;;;7.90;60.10;;;6.25;60.30;96952.66;4951524;28;20047;-66
2022/03/15 02:32:34;;;;;;;16.17;9.27;;;7.70;60.40;;;6.22;61.19;96950.31;4952896;28;20122;-66
2022/03/15 02:35:00;;;;;;;13.57;9.40;;;7.70;60.70;;;6.21;60.19;96948.69;4980215;28;20038;-66
2022/03/15 02:37:26;;;;;;;13.30;9.30;;;7.70;60.70;;;6.21;61.23;96956.53;4952046;28;20169;-66
2022/03/15 02:39:51;;;;;;;12.27;9.88;;;7.80;60.70;;;6.16;60.78;96946.50;4959331;28;20039;-66
2022/03/15 02:42:18;;;;;;;13.95;9.32;;;7.70;61.00;;;6.12;61.18;96948.56;4953103;28;20039;-65
2022/03/15 02:44:43;;;;;;;11.35;8.63;;;7.70;61.20;;;6.06;61.45;96954.34;4946921;28;20069;-65
2022/03/15 02:47:09;;;;;;;12.88;8.93;;;7.60;61.40;;;6.02;61.47;96952.97;4968486;28;20035;-65
2022/03/15 02:49:36;;;;;;;13.07;9.57;;;7.60;61.50;;;5.96;61.13;96948.31;4957166;28;20039;-66
2022/03/15 02:52:01;;;;;;;14.60;9.40;;;7.40;61.80;;;5.87;61.89;96943.88;4964540;28;20035;-66
2022/03/15 02:54:27;;;;;;;18.15;10.07;;;7.30;62.00;;;5.78;61.49;96944.72;4967549;28;20554;-66
2022/03/15 02:56:53;;;;;;;12.65;9.45;;;7.20;62.20;;;5.71;61.36;96933.19;4945091;28;20057;-65
2022/03/15 02:59:19;;;;;;;13.27;9.63;;;7.20;62.20;;;5.68;61.58;96938.69;4953938;28;20043;-65
2022/03/15 03:01:46;;;;;;;14.73;10.30;;;7.20;62.30;;;5.61;61.90;96927.13;4954644;28;20418;-66
2022/03/15 03:04:11;;;;;;;14.95;10.32;;;7.20;62.60;;;5.54;62.21;96926.88;4960833;28;20511;-66
2022/03/15 03:06:38;;;;;;;14.15;10.10;;;7.10;62.90;;;5.54;61.98;96937.31;4980173;28;20039;-65
2022/03/15 03:09:22;;;;;;;15.75;10.77;;;7.10;63.10;;;5.55;65.31;96933.72;4950071;28;20491;-69
2022/03/15 03:11:48;;;;;;;16.45;10.38;;;7.10;63.00;;;5.51;62.28;96935.78;4967952;28;20039;-70
2022/03/15 03:14:15;;;;;;;15.18;10.80;;;7.10;63.30;;;5.47;62.70;96931.81;4958748;28;20036;-72
2022/03/15 03:16:41;;;;;;;14.45;10.45;;;7.00;63.40;;;5.44;62.86;96932.09;4966999;28;20047;-71
2022/03/15 03:19:08;;;;;;;14.40;10.45;;;7.00;63.60;;;5.47;62.53;96941.44;4968034;28;20415;-71
2022/03/15 03:21:36;;;;;;;15.35;9.85;;;7.10;63.50;;;5.47;62.70;96946.66;4953457;28;20046;-70
2022/03/15 03:24:06;;;;;;;14.90;10.88;;;7.00;63.70;;;5.47;62.64;96947.47;4929856;28;20038;-70
2022/03/15 03:26:34;;;;;;;37.67;24.80;;;7.10;63.70;;;5.47;63.31;96949.25;4957668;28;20035;-70
2022/03/15 03:29:00;;;;;;;46.40;29.92;;;7.10;63.90;;;5.47;63.58;96942.25;4952703;28;20053;-71
2022/03/15 03:31:26;;;;;;;21.17;15.90;;;7.00;63.90;;;5.47;63.60;96942.25;4962681;28;20035;-69
2022/03/15 03:33:52;;;;;;;22.38;16.90;;;7.10;64.00;;;5.48;63.14;96930.84;4967045;28;20063;-69
2022/03/15 03:36:17;;;;;;;48.35;32.10;;;7.10;64.00;;;5.47;63.37;96929.22;4954551;28;20042;-70
2022/03/15 03:38:43;;;;;;;46.25;31.02;;;7.10;63.90;;;5.48;64.15;96938.69;4955146;28;20106;-70
2022/03/15 03:41:09;;;;;;;19.27;13.88;;;7.10;63.80;;;5.45;63.85;96933.75;4968726;28;20042;-70
2022/03/15 03:43:35;;;;;;;15.25;11.43;;;7.10;63.80;;;5.45;63.25;96928.53;4930305;28;20039;-69
2022/03/15 03:46:00;;;;;;;20.23;13.27;;;7.10;63.80;;;5.43;64.02;96920.00;4955067;28;20031;-69
2022/03/15 03:48:26;;;;;;;21.48;16.00;;;7.00;64.20;;;5.43;64.05;96927.84;4942459;28;20129;-70
2022/03/15 03:50:53;;;;;;;27.88;17.02;;;7.10;64.20;;;5.44;64.38;96921.66;4953413;28;20053;-69
2022/03/15 03:53:21;;;;;;;19.70;14.00;;;7.10;64.20;;;5.46;64.04;96922.34;4959214;28;20514;-70
2022/03/15 03:55:46;;;;;;;16.83;13.30;;;7.10;64.20;;;5.47;63.83;96926.59;4967657;28;20046;-69
2022/03/15 03:58:12;;;;;;;19.42;13.73;;;7.10;64.00;;;5.47;64.83;96916.16;4978686;28;20042;-70
2022/03/15 04:00:38;;;;;;;20.55;14.65;;;7.10;64.20;;;5.47;64.34;96917.94;4955016;28;20046;-70
2022/03/15 04:03:04;;;;;;;43.83;30.25;;;7.10;64.40;;;5.46;65.22;96914.50;4938112;28;20035;-70
2022/03/15 04:05:36;;;;;;;32.22;22.70;;;7.10;64.60;;;5.46;64.55;96911.91;4953534;28;20061;-70
2022/03/15 04:08:03;;;;;;;18.45;12.93;;;7.10;64.40;;;5.45;65.11;96918.09;4985352;28;20041;-70
2022/03/15 04:10:31;;;;;;;16.33;11.98;;;7.10;64.00;;;5.43;64.45;96914.78;4958673;28;20146;-70
2022/03/15 04:12:56;;;;;;;18.10;10.88;;;7.10;64.10;;;5.42;64.63;96917.50;4929025;28;20406;-69
2022/03/15 04:15:23;;;;;;;16.52;12.10;;;7.10;64.10;;;5.40;64.94;96922.88;4924186;29;20214;-70
2022/03/15 04:17:50;;;;;;;16.83;11.88;;;7.10;64.20;;;5.36;64.47;96933.72;4951872;28;20031;-70
2022/03/15 04:20:16;;;;;;;15.48;11.55;;;7.00;64.30;;;5.34;64.42;96925.19;4968525;28;20042;-70
2022/03/15 04:22:42;;;;;;;17.13;11.60;;;7.00;64.40;;;5.33;65.36;96924.38;4987498;28;20045;-70
2022/03/15 04:25:09;;;;;;;14.68;11.25;;;7.00;64.60;;;5.34;64.69;96936.47;4944577;28;20035;-69
2022/03/15 04:27:35;;;;;;;18.23;11.85;;;7.00;64.40;;;5.32;65.04;96933.16;4960589;28;20177;-69
2022/03/15 04:30:00;;;;;;;17.45;12.40;;;7.00;64.40;;;5.35;64.55;96935.50;4970341;28;20046;-71
2022/03/15 04:32:26;;;;;;;23.95;17.88;;;7.10;64.60;;;5.38;65.29;96937.00;4965138;28;20453;-75
2022/03/15 04:34:52;;;;;;;32.15;23.20;;;7.10;65.10;;;5.37;64.96;96930.97;4958245;28;20344;-71
2022/03/15 04:37:19;;;;;;;24.75;16.10;;;7.10;65.00;;;5.38;65.11;96932.63;4943860;28;20090;-72
2022/03/15 04:39:45;;;;;;;16.63;12.30;;;7.10;64.80;;;5.37;65.38;96930.97;4959604;28;20043;-72
2022/03/15 04:42:11;;;;;;;16.25;11.52;;;7.00;64.50;;;5.37;65.36;96928.34;4964643;28;20031;-72
2022/03/15 04:44:37;;;;;;;14.20;11.98;;;7.00;64.60;;;5.36;65.73;96938.94;4965501;28;20038;-69
2022/03/15 04:47:03;;;;;;;16.25;11.98;;;7.00;64.80;;;5.35;64.85;96940.72;4961771;28;20026;-70
2022/03/15 04:49:29;;;;;;;17.30;11.38;;;7.00;64.80;;;5.36;65.44;96939.75;4958150;28;20047;-70
2022/03/15 04:51:54;;;;;;;17.20;12.80;;;7.00;64.60;;;5.35;65.73;96935.50;4969421;28;20544;-69
2022/03/15 04:54:20;;;;;;;19.88;12.50;;;7.00;64.60;;;5.33;65.89;96927.00;4974200;28;20089;-70
2022/03/15 04:56:46;;;;;;;17.17;12.55;;;7.00;64.80;;;5.32;65.12;96933.16;4975847;28;20043;-69
2022/03/15 04:59:12;;;;;;;15.88;12.43;;;7.00;64.90;;;5.28;64.99;96926.56;4969761;28;20554;-70
2022/03/15 05:01:37;;;;;;;18.90;13.43;;;6.90;64.90;;;5.26;65.85;96928.50;4969405;28;20417;-70
2022/03/15 05:04:03;;;;;;;17.10;13.48;;;6.90;65.00;;;5.26;65.67;96927.69;4983049;28;20050;-69
2022/03/15 05:06:29;;;;;;;18.25;12.88;;;6.90;65.10;;;5.22;65.61;96916.69;4976414;28;20368;-69
2022/03/15 05:08:55;;;;;;;17.88;12.85;;;6.90;65.40;;;5.19;66.24;96911.72;4966811;28;20146;-70
2022/03/15 05:11:21;;;;;;;20.80;12.98;;;6.80;65.90;;;5.18;66.50;96921.34;4952455;28;20062;-69
2022/03/15 05:13:48;;;;;;;23.42;13.43;;;6.80;65.90;;;5.19;66.00;96914.34;4957384;28;20042;-68
2022/03/15 05:16:17;;;;;;;21.55;13.15;;;6.90;65.70;;;5.17;66.75;96917.06;4963811;28;20113;-70
2022/03/15 05:18:44;;;;;;;17.15;13.63;;;6.80;65.70;;;5.18;66.18;96916.13;4954173;28;20034;-69
2022/03/15 05:21:14;;;;;;;21.30;13.52;;;6.80;65.80;;;5.18;66.29;96920.50;4952220;28;20334;-70
2022/03/15 05:23:42;;;;;;;18.15;13.32;;;6.80;65.90;;;5.17;66.83;96913.66;4961353;28;20121;-70
2022/03/15 05:26:08;;;;;;;20.92;13.95;;;6.80;66.00;;;5.15;66.42;96905.13;4949747;28;20151;-70
2022/03/15 05:28:33;;;;;;;23.33;14.93;;;6.80;66.20;;;5.16;66.58;96912.81;4936420;28;20063;-70
2022/03/15 05:30:59;;;;;;;19.42;14.13;;;6.80;66.30;;;5.19;66.32;96916.94;4964329;28;20082;-71
2022/03/15 05:33:25;;;;;;;19.90;14.82;;;6.90;66.20;;;5.22;67.28;96921.91;4938881;28;20510;-72
2022/03/15 05:35:51;;;;;;;18.85;14.55;;;6.90;66.10;;;5.23;67.11;96923.56;4966585;28;20051;-71
2022/03/15 05:38:17;;;;;;;22.10;14.52;;;7.00;65.90;;;5.24;66.81;96920.00;4965701;28;20284;-72
2022/03/15 05:40:42;;;;;;;20.33;15.00;;;7.00;66.00;;;5.25;67.09;96921.63;4957319;28;20038;-72
2022/03/15 05:43:08;;;;;;;26.92;17.65;;;7.00;65.80;;;5.26;67.22;96923.28;4969754;28;20046;-70
2022/03/15 05:45:34;;;;;;;25.65;19.00;;;7.10;66.10;;;5.31;67.68;96934.13;4936692;28;20051;-71
2022/03/15 05:48:00;;;;;;;22.40;15.35;;;7.10;66.00;;;5.35;67.01;96927.66;4938166;28;20050;-74
2022/03/15 05:50:26;;;;;;;18.77;14.50;;;7.20;65.90;;;5.40;67.70;96930.69;4947894;28;20039;-72
2022/03/15 05:52:51;;;;;;;20.15;15.07;;;7.20;65.80;;;5.44;66.90;96926.88;4965922;28;20079;-70
2022/03/15 05:55:17;;;;;;;23.33;15.05;;;7.30;65.30;;;5.46;66.95;96930.16;4941935;28;20047;-69
2022/03/15 05:57:43;;;;;;;21.02;14.68;;;7.30;65.10;;;5.48;67.40;96930.84;4956597;28;20110;-66
2022/03/15 06:00:13;;;;;;;22.35;14.82;;;7.30;65.10;;;5.47;66.81;96929.22;4952034;28;20035;-68
2022/03/15 06:02:39;;;;;;;18.98;14.55;;;7.20;65.20;;;5.48;66.77;96933.47;4981632;28;20070;-69
2022/03/15 06:05:07;;;;;;;21.55;15.18;;;7.20;65.20;;;5.50;66.98;96934.16;4957186;28;20033;-69
2022/03/15 06:07:33;;;;;;;18.73;13.98;;;7.30;65.30;;;5.52;67.17;96940.06;4970271;28;20534;-69
2022/03/15 06:09:58;;;;;;;22.25;15.93;;;7.20;65.30;;;5.51;66.61;96927.16;4967487;28;20043;-68
2022/03/15 06:12:24;;;;;;;19.73;14.63;;;7.30;65.40;;;5.51;67.11;96938.41;4969791;28;20042;-67
2022/03/15 06:14:50;;;;;;;20.50;15.00;;;7.30;65.40;;;5.51;67.07;96945.41;4968552;28;20047;-70
2022/03/15 06:17:16;;;;;;;20.80;15.23;;;7.30;65.10;;;5.52;67.63;96947.88;4978671;28;20486;-69
2022/03/15 06:19:41;;;;;;;23.80;16.58;;;7.30;65.30;;;5.50;66.95;96952.41;4951324;28;20035;-69
2022/03/15 06:22:07;;;;;;;31.58;23.33;;;7.20;65.70;;;5.56;67.28;96939.78;4958350;28;20112;-68
2022/03/15 06:24:34;;;;;;;22.10;14.82;;;7.40;65.80;;;5.58;67.77;96943.06;4979183;28;20536;-69
2022/03/15 06:26:59;;;;;;;21.05;14.88;;;7.40;64.90;;;5.60;67.10;96948.97;4955799;28;20035;-68
2022/03/15 06:29:26;;;;;;;18.88;14.20;;;7.40;64.80;;;5.58;67.70;96948.28;4965254;28;20046;-66
2022/03/15 06:31:53;;;;;;;25.85;14.73;;;7.50;65.10;;;5.57;67.54;96949.25;4951882;28;20179;-67
2022/03/15 06:34:20;;;;;;;18.65;14.65;;;7.30;65.20;;;5.60;67.97;96951.59;4959071;28;20058;-68
2022/03/15 06:36:46;;;;;;;18.83;15.18;;;7.40;65.10;;;5.63;66.76;96952.13;4961175;28;20534;-69
2022/03/15 06:39:12;;;;;;;22.25;15.65;;;7.50;65.00;;;5.66;67.59;96945.81;4969555;28;20046;-69
2022/03/15 06:41:39;;;;;;;26.92;16.45;;;7.50;64.70;;;5.69;67.47;96940.34;4966196;28;20066;-69
2022/03/15 06:44:08;;;;;;;23.52;15.90;;;7.60;64.50;;;5.73;68.25;96926.03;4962957;28;20393;-67
2022/03/15 06:46:34;;;;;;;20.15;14.73;;;7.60;64.20;;;5.76;67.06;96910.91;4964940;28;20038;-66
2022/03/15 06:49:00;;;;;;;19.13;15.13;;;7.60;64.50;;;5.83;68.10;96921.63;4970055;28;20039;-71
2022/03/15 06:51:26;;;;;;;20.17;14.75;;;7.70;64.90;;;5.91;67.26;96913.97;4951710;28;20570;-71
2022/03/15 06:53:52;;;;;;;18.83;15.25;;;7.90;64.60;;;5.97;67.71;96918.63;4935963;28;20042;-70
2022/03/15 06:56:19;;;;;;;22.05;16.00;;;8.00;64.60;;;6.08;68.14;96913.22;4981782;28;20042;-72
2022/03/15 06:58:44;;;;;;;20.30;15.02;;;8.10;64.30;;;6.15;67.37;96910.91;4979142;28;20078;-66
2022/03/15 07:01:10;;;;;;;19.90;15.80;;;8.20;63.60;;;6.21;66.99;96918.16;4954532;28;20412;-69
2022/03/15 07:03:36;;;;;;;20.98;15.10;;;8.40;63.10;;;6.32;68.00;96922.38;4962867;28;20139;-67
2022/03/15 07:06:02;;;;;;;21.02;16.15;;;8.50;62.90;;;6.43;67.04;96945.72;4958369;28;20626;-71
2022/03/15 07:08:28;;;;;;;20.58;15.25;;;8.60;62.50;;;6.51;67.62;96963.31;4962554;28;20050;-68
2022/03/15 07:10:54;;;;;;;19.88;15.60;;;8.60;62.10;;;6.63;66.99;96946.50;4966126;28;20076;-70
2022/03/15 07:13:20;;;;;;;22.92;16.60;;;8.90;61.90;;;6.76;67.34;96939.94;4967115;28;20039;-70
2022/03/15 07:15:45;;;;;;;18.35;15.80;;;9.10;61.20;;;6.86;66.92;96939.09;4966226;28;20027;-69
2022/03/15 07:18:11;;;;;;;19.85;15.70;;;9.20;60.00;;;6.98;66.30;96932.69;4943997;28;20190;-69
2022/03/15 07:20:37;;;;;;;22.48;16.00;;;9.30;59.60;;;7.10;65.16;96923.69;4952500;28;20032;-67
2022/03/15 07:23:03;;;;;;;19.95;16.08;;;9.40;59.10;;;7.23;65.81;96918.91;4947770;28;20036;-69
2022/03/15 07:25:29;;;;;;;19.25;15.75;;;9.50;59.10;;;7.32;65.02;96918.03;4973586;28;20361;-73
2022/03/15 07:27:56;;;;;;;25.73;15.73;;;9.60;58.80;;;7.44;65.18;96915.19;4953051;28;20461;-66
2022/03/15 07:30:22;;;;;;;19.52;16.17;;;9.70;58.80;;;7.50;65.12;96912.81;4968781;28;20093;-67
2022/03/15 07:32:48;;;;;;;22.23;16.17;;;9.70;58.40;;;7.55;64.43;96905.31;4954122;28;20411;-72
2022/03/15 07:35:14;;;;;;;19.65;15.00;;;9.70;58.30;;;7.59;64.35;96898.81;4958823;28;20387;-66
2022/03/15 07:37:55;;;;;;;18.77;16.40;;;9.70;58.40;;;7.62;64.86;96908.16;4971834;28;20491;-71
2022/03/15 07:40:25;;;;;;;22.20;16.00;;;9.60;59.00;;;7.63;63.61;96915.03;4980243;28;20094;-70
2022/03/15 07:42:52;;;;;;;20.15;15.82;;;9.60;58.70;;;7.67;63.32;96921.63;4972062;28;20530;-68
2022/03/15 07:45:18;;;;;;;19.70;15.18;;;9.70;58.30;;;7.73;63.42;96928.06;4981468;28;20035;-69
2022/03/15 07:47:44;;;;;;;21.20;15.43;;;9.70;58.30;;;7.76;63.21;96946.91;4953978;28;20582;-70
2022/03/15 07:50:10;;;;;;;61.80;18.80;;;9.70;58.30;;;7.66;63.29;96946.97;4956378;28;20054;-72
2022/03/15 07:52:36;;;;;;;24.08;17.05;;;9.40;59.00;;;7.62;63.20;96957.91;4924437;28;20113;-66
2022/03/15 07:55:01;;;;;;;30.55;16.05;;;9.40;59.20;;;7.53;63.06;96966.66;4954598;28;20098;-68
2022/03/15 07:57:27;;;;;;;36.25;16.17;;;9.10;59.40;;;7.38;62.96;96977.63;4987872;28;20118;-69
2022/03/15 07:59:53;;;;;;;38.00;16.08;;;8.90;60.20;;;7.25;63.53;96964.09;4970066;28;20043;-65
2022/03/15 08:02:19;;;;;;;22.75;14.80;;;8.70;61.30;;;7.09;64.19;96953.44;4972951;28;20034;-66
2022/03/15 08:04:45;;;;;;;19.48;14.73;;;8.50;62.30;;;6.99;64.07;96947.41;4970178;28;20031;-70
2022/03/15 08:07:10;;;;;;;31.58;15.25;;;8.50;62.30;;;6.97;65.05;96947.56;4967539;28;20035;-65
2022/03/15 08:09:38;;;;;;;17.88;14.07;;;8.60;62.10;;;6.87;65.02;96948.59;4983133;28;20089;-65
2022/03/15 08:12:05;;;;;;;26.27;15.20;;;8.40;62.20;;;6.84;65.00;96933.19;4966388;28;20062;-66
2022/03/15 08:14:30;;;;;;;16.35;13.48;;;8.50;62.30;;;6.85;64.50;96940.06;4982541;28;20035;-66
2022/03/15 08:16:56;;;;;;;17.33;13.77;;;8.60;61.80;;;6.87;65.19;96943.38;4969061;28;20069;-65
2022/03/15 08:19:22;;;;;;;18.45;12.93;;;8.60;61.70;;;6.90;64.94;96938.66;4972839;28;20523;-68
2022/03/15 08:21:48;;;;;;;18.77;13.88;;;8.80;61.50;;;6.97;65.17;96925.81;4971185;28;20039;-65
2022/03/15 08:24:14;;;;;;;17.75;13.27;;;8.90;61.40;;;7.04;64.58;96926.91;4937444;28;20113;-65
2022/03/15 08:26:40;;;;;;;17.20;13.23;;;9.10;61.10;;;7.07;65.04;96931.84;4955694;28;20030;-64
2022/03/15 08:29:06;;;;;;;16.55;13.68;;;9.00;60.50;;;7.11;64.58;96935.81;4986642;28;20035;-69
2022/03/15 08:31:32;;;;;;;20.70;14.15;;;9.00;60.60;;;7.11;64.67;96925.34;4936985;28;20041;-66
2022/03/15 08:33:58;;;;;;;24.33;13.98;;;9.10;60.50;;;7.20;64.45;96919.22;4961995;28;20440;-66
2022/03/15 08:36:23;;;;;;;20.58;13.20;;;9.20;60.00;;;7.23;64.56;96918.91;4942496;28;20039;-68
2022/03/15 08:38:50;;;;;;;21.10;12.50;;;9.20;59.90;;;7.27;64.06;96929.94;4975944;28;20496;-68
2022/03/15 08:41:16;;;;;;;18.85;12.38;;;9.20;59.50;;;7.33;64.60;96934.56;4941187;28;20057;-66
2022/03/15 08:43:41;;;;;;;22.85;12.95;;;9.30;59.00;;;7.37;64.16;96933.28;4955723;28;20035;-67
2022/03/15 08:46:07;;;;;;;17.27;12.35;;;9.30;59.10;;;7.40;63.41;96940.84;4982059;28;20045;-68
2022/03/15 08:48:33;;;;;;;17.92;12.02;;;9.40;58.70;;;7.45;63.29;96943.00;4937489;28;20062;-69
2022/03/15 08:51:02;;;;;;;15.98;12.10;;;9.40;58.40;;;7.45;63.41;96932.53;4966288;28;20031;-67
2022/03/15 08:53:32;;;;;;;20.58;12.35;;;9.30;58.90;;;7.53;63.29;96928.22;4979276;28;20102;-68
2022/03/15 08:55:58;;;;;;;17.80;11.07;;;9.60;58.60;;;7.64;62.87;96927.16;4966515;28;20038;-69
2022/03/15 08:58:24;;;;;;;15.60;11.35;;;9.70;58.00;;;7.73;63.01;96920.22;4962376;28;20043;-71
2022/03/15 09:00:51;;;;;;;15.85;11.30;;;9.80;57.60;;;7.80;62.81;96906.34;4965753;28;20034;-68
2022/03/15 09:03:17;;;;;;;13.70;11.45;;;9.90;57.10;;;7.92;62.62;96918.25;4960808;28;20133;-70
2022/03/15 09:05:43;;;;;;;14.48;11.23;;;10.10;56.40;;;7.95;61.95;96920.56;4966409;28;20041;-68
2022/03/15 09:08:09;;;;;;;13.30;10.55;;;10.00;56.60;;;8.04;61.81;96907.50;4969290;28;20031;-70
2022/03/15 09:10:34;;;;;;;14.23;10.70;;;10.20;56.40;;;8.15;61.88;96902.03;4967417;28;20039;-70
2022/03/15 09:13:00;;;;;;;16.52;11.07;;;10.40;56.40;;;8.29;61.92;96891.78;4953976;28;20039;-67
2022/03/15 09:15:26;;;;;;;12.90;10.10;;;10.60;55.30;;;8.46;61.88;96897.16;4963136;28;20085;-67
2022/03/15 09:17:52;;;;;;;12.85;10.27;;;11.00;54.40;;;8.66;61.44;96895.13;4969463;28;20064;-68
2022/03/15 09:20:18;;;;;;;13.85;9.40;;;11.20;53.00;;;8.80;60.56;96895.31;4964972;28;20047;-69
2022/03/15 09:22:44;;;;;;;13.35;9.27;;;11.40;53.00;;;9.01;60.19;96894.91;4978797;28;20031;-65
2022/03/15 09:25:10;;;;;;;14.07;9.55;;;11.70;52.70;;;9.23;60.01;96887.41;4953270;28;20050;-69
2022/03/15 09:27:35;;;;;;;11.43;9.07;;;11.90;51.20;;;9.33;58.97;96872.34;4985127;28;20038;-68
2022/03/15 09:30:02;;;;;;;12.13;9.70;;;11.70;50.40;;;9.46;58.70;96876.13;4950876;28;20152;-68
2022/03/15 09:32:28;;;;;;;13.63;8.63;;;12.10;50.30;;;9.67;58.74;96877.47;4965698;28;20077;-65
2022/03/15 09:34:54;;;;;;;13.40;9.48;;;12.50;49.60;;;9.90;58.34;96877.63;4952502;28;20509;-65
2022/03/15 09:37:20;;;;;;;17.58;9.40;;;12.90;48.10;;;10.14;57.13;96874.97;4967622;28;20568;-65
2022/03/15 09:39:46;;;;;;;14.63;9.13;;;13.10;47.40;;;10.37;57.01;96868.03;4978418;28;20043;-68
2022/03/15 09:42:12;;;;;;;14.25;9.45;;;13.30;46.90;;;10.58;55.87;96856.97;4952997;28;20058;-68
2022/03/15 09:44:40;;;;;;;17.60;10.40;;;13.60;46.10;;;10.76;55.30;96856.72;4978605;28;20499;-67
2022/03/15 09:47:06;;;;;;;13.90;9.32;;;13.60;46.30;;;10.93;54.96;96850.41;4984854;28;20039;-68
2022/03/15 09:49:32;;;;;;;15.70;9.27;;;13.90;45.50;;;11.11;54.40;96838.78;4953367;28;20054;-66
2022/03/15 09:51:59;;;;;;;13.90;8.85;;;14.00;45.50;;;11.29;54.95;96834.03;4970822;28;20573;-65
2022/03/15 09:54:25;;;;;;;12.15;9.70;;;14.20;45.50;;;11.48;53.61;96836.22;4967768;28;20693;-65
2022/03/15 09:56:51;;;;;;;13.25;9.35;;;14.60;44.70;;;11.71;53.30;96832.75;4968420;28;20079;-68
2022/03/15 09:59:19;;;;;;;10.65;9.45;;;14.90;43.90;;;11.88;53.23;96844.81;4952381;28;20490;-69
2022/03/15 10:01:50;;;;;;;16.73;9.82;;;15.00;43.70;;;12.03;52.80;96835.13;4967450;28;20039;-69
2022/03/15 10:04:17;;;;;;;13.18;9.40;;;15.20;43.40;;;12.20;52.67;96841.84;4968620;28;20575;-70
2022/03/15 10:06:43;;;;;;;12.15;9.18;;;15.20;43.50;;;12.32;52.40;96836.16;4954822;28;20035;-65
2022/03/15 10:09:09;;;;;;;11.82;9.38;;;15.10;43.40;;;12.39;52.69;96826.50;4962150;28;20361;-68
2022/03/15 10:11:35;;;;;;;10.25;8.82;;;15.00;44.10;;;12.48;52.01;96825.41;4949884;28;20067;-70
2022/03/15 10:14:01;;;;;;;11.55;9.05;;;15.00;44.20;;;12.48;51.48;96825.41;4968911;28;20120;-68
2022/03/15 10:16:32;;;;;;;11.63;8.32;;;14.70;44.20;;;12.48;51.07;96825.41;4936340;28;20035;-69